Time;durP1;ratioP1;P1;durP2;ratioP2;P2;SDS_P1;SDS_P2;PMS_P1;PMS_P2;Temp;Humidity;BMP_temperature;BMP_pressure;BME280_temperature;BME280_humidity;BME280_pressure;Samples;Min_cycle;Max_cycle;Signal;HPM_P1;HPM_P2
2021/06/03 00:02:07;;;;;;;16.10;11.85;;;;;;;21.98;82.57;100412.91;4992708;28;20105;-88
2021/06/03 00:04:33;;;;;;;20.02;13.70;;;;;;;21.99;82.06;100415.38;4992353;28;20361;-88
2021/06/03 00:06:59;;;;;;;20.48;13.73;;;;;;;21.96;81.30;100409.59;4992465;28;20030;-88
2021/06/03 00:09:26;;;;;;;16.83;12.35;;;;;;;22.02;81.51;100414.22;5002136;28;20492;-88
2021/06/03 00:11:52;;;;;;;19.48;12.38;;;;;;;22.10;81.02;100416.81;4995997;28;20034;-88
2021/06/03 00:14:19;;;;;;;14.65;11.05;;;;;;;22.03;81.22;100407.84;4992210;28;20030;-89
2021/06/03 00:16:45;;;;;;;19.23;12.20;;;;;;;22.07;80.72;100414.47;4992305;28;20034;-89
2021/06/03 00:19:11;;;;;;;17.75;11.35;;;;;;;21.92;82.71;100418.94;4992279;28;20029;-88
2021/06/03 00:21:39;;;;;;;20.25;12.10;;;;;;;21.97;81.69;100419.25;4992245;28;20030;-88
2021/06/03 00:24:06;;;;;;;21.38;13.82;;;;;;;21.83;82.47;100420.03;4992077;28;20041;-88
2021/06/03 00:26:33;;;;;;;16.98;12.48;;;;;;;21.84;82.36;100424.34;5006246;28;20033;-88
2021/06/03 00:28:58;;;;;;;17.27;11.93;;;;;;;21.82;82.28;100415.66;5011795;28;20022;-88
2021/06/03 00:31:23;;;;;;;17.13;11.68;;;;;;;21.72;82.21;100411.41;5011753;28;20024;-88
2021/06/03 00:33:49;;;;;;;17.77;11.15;;;;;;;21.69;82.44;100418.94;5010449;28;20022;-88
2021/06/03 00:36:14;;;;;;;18.60;12.35;;;;;;;21.69;82.17;100424.28;5011821;28;20530;-88
2021/06/03 00:38:40;;;;;;;15.70;11.50;;;;;;;21.62;82.41;100426.00;5011915;28;20038;-88
2021/06/03 00:41:08;;;;;;;16.55;11.10;;;;;;;21.57;82.58;100429.19;4998395;28;20116;-88
2021/06/03 00:43:34;;;;;;;16.75;11.07;;;;;;;21.46;83.37;100425.06;4992212;28;20034;-88
2021/06/03 00:46:00;;;;;;;17.80;10.55;;;;;;;21.48;82.77;100432.91;4992200;28;20037;-88
2021/06/03 00:48:25;;;;;;;13.23;9.77;;;;;;;21.45;82.49;100435.94;4991047;28;20034;-88
2021/06/03 00:50:55;;;;;;;12.35;9.38;;;;;;;21.35;83.37;100434.28;4992127;28;20030;-88
2021/06/03 00:53:21;;;;;;;14.00;10.00;;;;;;;21.29;82.90;100432.31;4995291;28;20456;-88
2021/06/03 00:55:53;;;;;;;11.63;8.35;;;;;;;21.24;83.14;100433.81;4995277;28;20044;-88
2021/06/03 00:58:19;;;;;;;13.95;10.10;;;;;;;21.08;83.40;100426.72;4995807;28;20506;-88
2021/06/03 01:00:46;;;;;;;15.10;8.60;;;;;;;21.07;83.20;100433.03;4995630;28;20085;-88
2021/06/03 01:03:12;;;;;;;12.05;8.45;;;;;;;20.95;83.49;100430.75;4995703;28;20022;-88
2021/06/03 01:05:42;;;;;;;9.88;7.43;;;;;;;20.90;83.54;100426.94;4995619;28;20392;-88
2021/06/03 01:08:13;;;;;;;11.15;8.70;;;;;;;20.71;84.24;100423.63;4995465;28;20026;-88
2021/06/03 01:10:53;;;;;;;12.90;8.82;;;;;;;20.65;84.87;100426.16;4996320;28;20030;-88
2021/06/03 01:13:43;;;;;;;10.98;8.48;;;;;;;20.54;84.98;100428.13;5009704;28;20029;-88
2021/06/03 01:16:11;;;;;;;12.10;7.93;;;;;;;20.57;84.82;100429.63;5014938;28;20472;-88
2021/06/03 01:18:38;;;;;;;15.77;9.85;;;;;;;20.26;86.21;100429.47;5014865;28;20061;-88
2021/06/03 01:21:08;;;;;;;11.82;8.38;;;;;;;20.33;85.74;100430.50;5014846;28;20028;-88
2021/06/03 01:23:52;;;;;;;14.27;9.00;;;;;;;20.24;85.77;100434.16;5014560;28;20048;-88
2021/06/03 01:26:18;;;;;;;14.30;10.60;;;;;;;19.79;87.71;100439.78;5013477;28;20026;-88
2021/06/03 01:28:45;;;;;;;10.80;8.55;;;;;;;19.93;87.08;100432.16;4998436;28;20361;-88
2021/06/03 01:31:11;;;;;;;14.30;9.18;;;;;;;19.81;87.97;100437.78;4994995;28;20026;-88
2021/06/03 01:33:41;;;;;;;15.30;10.30;;;;;;;19.82;86.71;100441.28;4994845;28;20429;-88
2021/06/03 01:36:10;;;;;;;13.27;9.50;;;;;;;19.82;86.79;100446.59;4995943;28;20354;-88
2021/06/03 01:38:39;;;;;;;14.50;9.63;;;;;;;19.77;86.66;100454.25;4995063;28;20120;-88
2021/06/03 01:41:07;;;;;;;15.70;10.18;;;;;;;19.64;86.71;100454.69;4994775;28;20030;-88
2021/06/03 01:43:34;;;;;;;12.40;8.88;;;;;;;19.65;86.69;100455.50;4994923;28;20026;-88
2021/06/03 01:46:00;;;;;;;14.30;9.77;;;;;;;19.60;86.79;100453.34;4994811;28;20465;-88
2021/06/03 01:48:26;;;;;;;17.98;10.18;;;;;;;19.44;87.52;100458.63;4997891;28;20369;-88
2021/06/03 01:50:55;;;;;;;17.50;10.85;;;;;;;19.52;87.09;100456.81;5014078;28;20088;-88
2021/06/03 01:53:23;;;;;;;15.10;10.65;;;;;;;19.44;86.77;100461.28;5014115;28;20032;-88
2021/06/03 01:55:52;;;;;;;15.77;11.43;;;;;;;19.38;87.39;100463.56;5014153;28;20069;-88
2021/06/03 01:58:19;;;;;;;17.05;11.00;;;;;;;19.37;87.12;100466.41;5014150;28;20109;-88
2021/06/03 02:00:45;;;;;;;15.27;11.27;;;;;;;19.31;86.89;100459.91;5014022;28;20030;-88
2021/06/03 02:03:10;;;;;;;19.67;11.43;;;;;;;19.35;86.66;100469.25;5013026;28;20072;-88
2021/06/03 02:05:35;;;;;;;15.38;11.18;;;;;;;19.38;86.90;100470.75;5014322;28;20030;-88
2021/06/03 02:08:01;;;;;;;13.52;10.70;;;;;;;19.31;86.48;100467.91;5014001;28;20105;-88
2021/06/03 02:10:27;;;;;;;15.27;11.60;;;;;;;19.22;86.30;100461.69;5013796;28;20396;-87
2021/06/03 02:13:01;;;;;;;16.02;11.30;;;;;;;19.35;86.37;100471.03;5000610;28;20518;-88
2021/06/03 02:15:33;;;;;;;15.50;11.80;;;;;;;19.35;86.37;100465.72;4994055;28;20036;-88
2021/06/03 02:17:59;;;;;;;13.32;10.30;;;;;;;19.36;86.25;100476.22;4994320;28;20033;-88
2021/06/03 02:20:31;;;;;;;17.80;12.15;;;;;;;19.23;85.83;100473.16;4993895;28;20018;-87
2021/06/03 02:22:57;;;;;;;16.75;11.32;;;;;;;19.05;86.27;100478.56;4993901;28;20073;-88
2021/06/03 02:25:25;;;;;;;15.90;10.27;;;;;;;19.19;85.78;100478.00;4994795;28;20042;-87
2021/06/03 02:27:50;;;;;;;16.02;10.90;;;;;;;19.11;85.01;100477.09;5007771;28;20061;-86
2021/06/03 02:30:18;;;;;;;16.33;10.95;;;;;;;19.22;85.62;100477.66;5013471;28;20029;-86
2021/06/03 02:32:45;;;;;;;16.35;11.45;;;;;;;19.10;85.95;100483.41;5013364;28;20452;-86
2021/06/03 02:35:11;;;;;;;16.13;11.45;;;;;;;19.21;85.19;100480.47;5013090;28;20034;-87
2021/06/03 02:37:45;;;;;;;16.42;11.32;;;;;;;19.40;84.79;100484.72;5013255;28;20041;-87
2021/06/03 02:40:17;;;;;;;16.65;11.95;;;;;;;19.09;86.30;100482.56;5012993;28;20392;-87
2021/06/03 02:42:44;;;;;;;18.27;12.80;;;;;;;19.17;85.23;100495.09;5000358;28;20179;-86
2021/06/03 02:45:12;;;;;;;14.75;11.38;;;;;;;19.23;84.83;100489.13;4993567;28;20070;-86
2021/06/03 02:47:39;;;;;;;17.88;12.05;;;;;;;19.20;85.21;100486.78;4993298;28;20084;-88
2021/06/03 02:50:09;;;;;;;17.58;12.68;;;;;;;19.21;85.64;100493.78;4993171;28;20030;-88
2021/06/03 02:52:36;;;;;;;17.58;11.88;;;;;;;19.18;85.50;100504.75;4993387;28;20027;-88
2021/06/03 02:55:07;;;;;;;19.17;13.45;;;;;;;19.09;86.16;100513.66;4993249;28;20034;-86
2021/06/03 02:57:33;;;;;;;17.20;12.10;;;;;;;19.24;85.39;100513.94;4994268;28;20109;-87
2021/06/03 02:59:59;;;;;;;17.45;12.50;;;;;;;19.14;85.52;100514.88;4992889;28;20599;-88
2021/06/03 03:02:25;;;;;;;18.42;12.00;;;;;;;19.02;85.91;100530.28;4993200;28;20433;-88
2021/06/03 03:04:50;;;;;;;16.98;12.40;;;;;;;19.04;85.76;100530.13;4993311;28;20018;-88
2021/06/03 03:07:16;;;;;;;17.08;12.35;;;;;;;19.06;85.87;100540.63;4993021;28;20030;-86
2021/06/03 03:09:41;;;;;;;20.20;13.95;;;;;;;18.98;86.05;100542.22;4992925;28;20022;-86
2021/06/03 03:12:07;;;;;;;23.17;13.52;;;;;;;18.82;87.33;100542.94;4993844;28;20106;-86
2021/06/03 03:14:32;;;;;;;20.17;13.55;;;;;;;18.91;86.40;100548.31;4991561;28;20038;-86
2021/06/03 03:16:58;;;;;;;20.50;14.38;;;;;;;18.96;87.06;100556.69;4992934;28;20054;-86
2021/06/03 03:19:24;;;;;;;25.23;16.10;;;;;;;18.83;87.52;100557.06;4992772;28;20105;-86
2021/06/03 03:21:49;;;;;;;21.35;14.70;;;;;;;18.92;87.44;100553.47;4992666;28;20045;-86
2021/06/03 03:24:14;;;;;;;22.20;14.55;;;;;;;18.93;87.70;100556.97;4992733;28;20042;-87
2021/06/03 03:26:40;;;;;;;28.42;17.73;;;;;;;18.90;87.38;100562.59;4994274;28;20109;-86
2021/06/03 03:29:05;;;;;;;27.58;17.23;;;;;;;18.78;86.97;100569.97;4993577;28;20428;-88
2021/06/03 03:31:31;;;;;;;28.88;17.63;;;;;;;18.72;86.97;100567.91;4992841;28;20026;-87
2021/06/03 03:34:02;;;;;;;31.65;16.95;;;;;;;18.58;85.96;100578.13;4992534;28;20069;-87
2021/06/03 03:36:29;;;;;;;27.50;17.00;;;;;;;18.56;85.82;100585.41;4992742;28;20026;-88
2021/06/03 03:38:54;;;;;;;28.90;18.55;;;;;;;17.99;89.52;100587.44;4992584;28;20469;-87
2021/06/03 03:41:19;;;;;;;32.03;19.08;;;;;;;18.31;87.95;100591.47;4992934;28;20105;-87
2021/06/03 03:43:45;;;;;;;36.65;19.98;;;;;;;18.09;88.51;100601.53;4996692;28;20137;-87
2021/06/03 03:46:10;;;;;;;33.28;19.75;;;;;;;18.19;88.34;100596.97;5011962;28;20392;-86
2021/06/03 03:48:35;;;;;;;32.13;20.33;;;;;;;18.22;88.72;100604.63;5012361;28;20111;-86
2021/06/03 03:51:01;;;;;;;37.35;20.67;;;;;;;18.23;88.67;100602.84;5012043;28;20032;-87
2021/06/03 03:53:26;;;;;;;38.20;20.90;;;;;;;18.18;87.83;100603.28;5011975;28;20499;-87
2021/06/03 03:55:52;;;;;;;34.22;21.23;;;;;;;18.13;88.31;100610.88;5012293;28;20109;-87
2021/06/03 03:58:17;;;;;;;32.80;20.95;;;;;;;18.09;88.89;100613.94;5008911;28;20045;-87
2021/06/03 04:00:42;;;;;;;38.97;21.08;;;;;;;17.95;89.03;100609.97;4992352;28;20440;-86
2021/06/03 04:03:09;;;;;;;34.30;21.45;;;;;;;17.95;89.06;100616.13;4992391;28;20026;-87
2021/06/03 04:05:35;;;;;;;35.17;21.13;;;;;;;18.07;88.69;100619.44;4991275;28;20034;-87
2021/06/03 04:08:00;;;;;;;36.03;20.70;;;;;;;18.12;88.18;100622.47;4992490;28;20046;-87
2021/06/03 04:10:27;;;;;;;31.73;19.02;;;;;;;17.96;89.12;100622.28;4992423;28;20084;-87
2021/06/03 04:12:52;;;;;;;34.45;20.83;;;;;;;18.07;89.19;100622.09;4992529;28;20018;-87
2021/06/03 04:15:19;;;;;;;32.65;19.67;;;;;;;18.08;87.94;100621.09;4992142;28;20033;-88
2021/06/03 04:17:44;;;;;;;30.35;18.60;;;;;;;18.10;86.87;100623.59;5007510;28;20045;-88
2021/06/03 04:20:13;;;;;;;27.55;18.35;;;;;;;18.02;86.73;100625.16;5010413;28;20387;-87
2021/06/03 04:22:39;;;;;;;23.75;15.63;;;;;;;18.20;86.44;100627.03;5011725;28;20018;-88
2021/06/03 04:25:06;;;;;;;23.20;15.98;;;;;;;18.13;85.03;100624.16;5011829;28;20029;-88
2021/06/03 04:27:31;;;;;;;21.13;15.80;;;;;;;18.08;85.15;100631.72;5013586;28;20101;-87
2021/06/03 04:29:56;;;;;;;21.15;14.63;;;;;;;18.17;84.55;100628.19;5015544;28;20030;-87
2021/06/03 04:32:22;;;;;;;20.25;13.85;;;;;;;18.23;83.77;100635.56;5004061;28;20030;-87
2021/06/03 04:34:47;;;;;;;19.13;13.98;;;;;;;18.14;83.79;100636.44;5010891;28;20036;-87
2021/06/03 04:37:12;;;;;;;23.40;15.57;;;;;;;18.07;83.79;100640.69;5015939;28;20391;-88
2021/06/03 04:39:38;;;;;;;20.88;14.82;;;;;;;18.16;83.71;100646.94;5015357;28;20101;-86
2021/06/03 04:42:05;;;;;;;20.65;14.60;;;;;;;18.20;83.50;100645.66;5015368;28;20109;-87
2021/06/03 04:44:30;;;;;;;21.77;13.93;;;;;;;18.22;83.54;100651.66;5015209;28;20080;-87
2021/06/03 04:46:56;;;;;;;23.60;15.75;;;;;;;18.17;83.69;100651.28;5015642;28;20488;-88
2021/06/03 04:49:21;;;;;;;23.95;15.10;;;;;;;18.14;83.85;100649.72;5001824;28;20365;-87
2021/06/03 04:51:47;;;;;;;25.38;15.80;;;;;;;18.13;84.20;100658.69;4995344;28;20038;-87
2021/06/03 04:54:12;;;;;;;24.02;16.02;;;;;;;18.07;84.30;100664.59;4995607;28;20034;-86
2021/06/03 04:56:37;;;;;;;21.90;16.05;;;;;;;18.00;84.86;100652.88;4995425;28;20030;-87
2021/06/03 04:59:03;;;;;;;23.20;14.65;;;;;;;18.27;83.33;100661.84;4995656;28;20030;-87
2021/06/03 05:01:29;;;;;;;24.08;16.25;;;;;;;18.27;83.38;100656.53;4995354;28;20030;-87
2021/06/03 05:03:54;;;;;;;21.55;15.52;;;;;;;18.30;82.58;100664.19;5006610;28;20029;-87
2021/06/03 05:06:20;;;;;;;22.65;15.40;;;;;;;18.36;82.51;100660.94;5014785;28;20022;-87
2021/06/03 05:08:45;;;;;;;23.65;15.18;;;;;;;18.34;83.11;100662.91;5014738;28;20026;-88
2021/06/03 05:11:11;;;;;;;19.98;14.48;;;;;;;18.36;82.43;100658.28;5014660;28;20029;-88
2021/06/03 05:13:37;;;;;;;18.55;13.02;;;;;;;18.36;82.33;100660.94;5005384;28;20084;-87
2021/06/03 05:16:02;;;;;;;22.85;15.40;;;;;;;18.40;81.67;100662.31;4995103;28;20026;-87
2021/06/03 05:18:28;;;;;;;21.00;13.32;;;;;;;18.37;81.84;100666.13;4995173;28;20358;-87
2021/06/03 05:20:53;;;;;;;24.88;14.93;;;;;;;18.39;81.12;100663.31;5008951;28;20037;-87
2021/06/03 05:23:20;;;;;;;19.42;12.95;;;;;;;18.47;81.33;100668.72;5013722;28;20030;-87
2021/06/03 05:25:46;;;;;;;21.00;14.13;;;;;;;18.37;81.78;100667.94;5014364;28;20021;-87
2021/06/03 05:28:11;;;;;;;26.67;15.20;;;;;;;18.31;82.75;100681.84;5016698;28;20026;-87
2021/06/03 05:30:37;;;;;;;22.48;14.18;;;;;;;18.43;82.57;100678.00;5008128;28;20019;-87
2021/06/03 05:33:02;;;;;;;25.15;16.35;;;;;;;18.36;83.16;100671.59;4998017;28;20057;-87
2021/06/03 05:35:28;;;;;;;23.98;15.93;;;;;;;18.36;83.32;100679.56;5015568;28;20030;-87
2021/06/03 05:37:54;;;;;;;24.23;15.02;;;;;;;18.79;79.97;100678.91;5013594;28;20519;-87
2021/06/03 05:40:22;;;;;;;25.02;16.30;;;;;;;18.83;79.68;100679.44;5010218;28;20477;-87
2021/06/03 05:42:49;;;;;;;20.30;14.82;;;;;;;18.94;78.46;100681.88;5001614;28;20030;-87
2021/06/03 05:45:15;;;;;;;25.92;16.02;;;;;;;18.58;80.01;100681.81;5014285;28;20029;-87
2021/06/03 05:47:41;;;;;;;23.35;16.05;;;;;;;18.64;80.79;100683.03;5014015;28;20018;-87
2021/06/03 05:50:10;;;;;;;24.50;14.68;;;;;;;18.85;79.13;100685.44;5012246;28;20034;-87
2021/06/03 05:52:37;;;;;;;21.30;14.85;;;;;;;18.98;77.35;100695.72;5007162;28;20483;-87
2021/06/03 05:55:05;;;;;;;23.45;14.77;;;;;;;19.40;76.84;100698.56;4994130;28;20125;-87
2021/06/03 05:57:30;;;;;;;24.20;14.75;;;;;;;19.45;75.50;100697.25;4994559;28;20033;-87
2021/06/03 05:59:56;;;;;;;23.25;13.95;;;;;;;19.65;74.21;100687.25;4993819;28;20034;-88
2021/06/03 06:02:30;;;;;;;19.30;13.52;;;;;;;19.47;74.93;100700.59;4995145;28;20105;-88
2021/06/03 06:07:40;;;;;;;21.13;14.32;;;;;;;19.22;76.70;100700.41;4994746;28;20077;-88
2021/06/03 06:10:06;;;;;;;21.48;13.98;;;;;;;19.00;76.48;100696.41;4993923;28;20026;-87
2021/06/03 06:12:32;;;;;;;18.55;12.73;;;;;;;19.19;76.73;100700.72;5013759;28;20104;-87
2021/06/03 06:14:57;;;;;;;24.45;16.08;;;;;;;18.97;77.46;100699.34;5013450;28;20034;-88
2021/06/03 06:17:22;;;;;;;19.05;14.23;;;;;;;18.86;78.15;100697.78;5013394;28;20029;-87
2021/06/03 06:19:48;;;;;;;17.20;12.93;;;;;;;19.08;77.71;100706.28;5013336;28;20456;-87
2021/06/03 06:22:13;;;;;;;20.73;13.45;;;;;;;19.04;78.05;100721.72;4995716;28;20038;-87
2021/06/03 06:24:38;;;;;;;18.52;12.70;;;;;;;18.94;78.71;100719.13;4992607;28;20164;-88
2021/06/03 06:27:05;;;;;;;21.77;13.48;;;;;;;18.77;79.86;100722.56;4993650;28;20487;-88
2021/06/03 06:29:30;;;;;;;21.70;13.50;;;;;;;18.86;80.65;100732.34;4993741;28;20516;-87
2021/06/03 06:31:55;;;;;;;20.55;13.52;;;;;;;18.91;80.63;100739.88;5007734;28;20025;-88
2021/06/03 06:34:21;;;;;;;21.50;14.70;;;;;;;18.77;80.29;100741.19;5013180;28;20040;-88
2021/06/03 06:36:46;;;;;;;25.30;15.85;;;;;;;18.49;81.53;100730.56;5013129;28;20026;-88
2021/06/03 06:39:12;;;;;;;24.38;15.20;;;;;;;18.55;80.89;100726.47;5011875;28;20048;-88
2021/06/03 06:41:41;;;;;;;22.92;14.32;;;;;;;18.60;81.03;100727.72;5010140;28;20041;-87
2021/06/03 06:44:07;;;;;;;25.95;15.15;;;;;;;18.50;81.34;100726.91;5012949;28;20053;-87
2021/06/03 06:46:33;;;;;;;25.23;14.05;;;;;;;18.77;80.62;100726.06;5011350;28;20034;-88
2021/06/03 06:48:58;;;;;;;26.92;14.60;;;;;;;18.59;82.10;100736.66;5012801;28;20084;-88
2021/06/03 06:51:24;;;;;;;22.92;13.70;;;;;;;18.72;81.27;100735.47;5002187;28;20125;-87
2021/06/03 06:53:49;;;;;;;27.00;13.88;;;;;;;18.62;81.42;100728.41;4994242;28;20118;-88
2021/06/03 06:56:15;;;;;;;19.27;12.93;;;;;;;18.79;80.38;100732.09;4993246;28;20456;-87
2021/06/03 06:58:40;;;;;;;35.70;13.70;;;;;;;18.71;79.87;100733.81;4993133;28;20026;-87
2021/06/03 07:01:06;;;;;;;27.15;14.70;;;;;;;18.78;81.12;100725.09;4999934;28;20053;-88
2021/06/03 07:03:31;;;;;;;20.02;13.20;;;;;;;18.82;80.60;100728.31;5012822;28;20053;-88
2021/06/03 07:05:56;;;;;;;33.15;13.88;;;;;;;18.86;80.59;100737.69;5011386;28;20030;-87
2021/06/03 07:08:22;;;;;;;22.15;12.60;;;;;;;18.74;80.60;100726.38;5012642;28;20068;-88
2021/06/03 07:10:48;;;;;;;26.13;13.68;;;;;;;18.70;81.56;100732.97;5007734;28;20459;-88
2021/06/03 07:13:14;;;;;;;30.58;12.18;;;;;;;18.81;80.85;100740.75;4991573;28;20018;-87
2021/06/03 07:15:39;;;;;;;22.33;13.88;;;;;;;18.79;79.90;100732.09;4992683;28;20409;-88
2021/06/03 07:18:05;;;;;;;25.55;13.95;;;;;;;18.72;80.69;100740.78;4992917;28;20031;-88
2021/06/03 07:20:30;;;;;;;19.73;13.05;;;;;;;18.59;81.26;100749.13;4994515;28;20046;-87
2021/06/03 07:23:03;;;;;;;20.80;13.07;;;;;;;18.78;81.24;100746.38;5012233;28;20109;-88
2021/06/03 07:25:29;;;;;;;16.60;11.35;;;;;;;18.84;80.56;100742.31;5010500;28;20030;-87
2021/06/03 07:27:56;;;;;;;21.88;12.32;;;;;;;18.97;80.22;100750.75;5012275;28;20022;-88
2021/06/03 07:30:23;;;;;;;21.98;12.55;;;;;;;19.21;78.12;100749.31;5012574;28;20033;-87
2021/06/03 07:32:50;;;;;;;23.20;12.50;;;;;;;19.25;76.93;100747.19;5011137;28;20488;-88
2021/06/03 07:35:16;;;;;;;21.38;11.95;;;;;;;19.33;75.90;100756.09;5013943;28;20037;-87
2021/06/03 07:37:43;;;;;;;35.72;14.32;;;;;;;19.27;76.43;100762.00;5013997;28;20030;-88
2021/06/03 07:40:12;;;;;;;29.85;13.35;;;;;;;19.37;75.43;100767.25;5015655;28;20499;-88
2021/06/03 07:42:39;;;;;;;26.40;11.27;;;;;;;19.29;76.65;100770.69;4994096;28;20490;-88
2021/06/03 07:45:07;;;;;;;33.38;13.68;;;;;;;19.30;76.81;100783.00;4995483;28;20037;-87
2021/06/03 07:47:33;;;;;;;29.35;13.38;;;;;;;19.10;77.57;100789.47;5000538;28;20062;-86
2021/06/03 07:49:58;;;;;;;21.85;12.90;;;;;;;19.06;77.69;100785.44;4994893;28;20456;-86
2021/06/03 07:52:24;;;;;;;24.67;13.95;;;;;;;19.29;75.45;100781.31;5014675;28;20057;-89
2021/06/03 07:54:49;;;;;;;27.20;12.43;;;;;;;19.26;75.97;100788.81;5012069;28;20100;-89
2021/06/03 07:57:15;;;;;;;22.83;11.77;;;;;;;19.24;76.89;100799.59;5012359;28;20026;-89
2021/06/03 07:59:40;;;;;;;18.52;11.65;;;;;;;19.20;76.92;100804.38;5010098;28;20376;-89
2021/06/03 08:02:06;;;;;;;16.98;10.63;;;;;;;19.26;77.29;100808.28;5007271;28;20026;-89
2021/06/03 08:04:31;;;;;;;19.67;11.52;;;;;;;18.97;76.86;100795.97;4995085;28;20039;-89
2021/06/03 08:06:56;;;;;;;23.08;11.98;;;;;;;19.25;75.33;100803.09;4996395;28;20025;-89
2021/06/03 08:09:22;;;;;;;18.65;10.63;;;;;;;19.31;76.26;100814.00;4996402;28;20084;-89
2021/06/03 08:11:47;;;;;;;17.73;10.32;;;;;;;19.21;76.11;100823.84;5001561;28;20472;-90
2021/06/03 08:14:13;;;;;;;17.63;9.95;;;;;;;19.11;76.09;100826.56;5008946;28;20557;-89
2021/06/03 08:16:39;;;;;;;18.00;9.98;;;;;;;19.32;75.84;100828.97;5012868;28;20435;-90
2021/06/03 08:19:05;;;;;;;16.80;9.85;;;;;;;19.42;74.50;100829.72;5005212;28;20026;-90
2021/06/03 08:21:30;;;;;;;14.52;9.75;;;;;;;19.49;75.53;100839.75;5013874;28;20087;-89
2021/06/03 08:23:56;;;;;;;17.85;9.88;;;;;;;19.37;75.65;100833.81;5015571;28;20072;-89
2021/06/03 08:26:23;;;;;;;19.40;10.73;;;;;;;18.99;77.20;100830.44;5007601;28;20022;-91
2021/06/03 08:28:49;;;;;;;14.05;9.05;;;;;;;19.38;74.91;100843.50;5007578;28;20088;-91
2021/06/03 08:31:15;;;;;;;17.73;10.43;;;;;;;19.38;75.25;100843.50;5009840;28;20021;-91
2021/06/03 08:33:40;;;;;;;16.75;10.07;;;;;;;19.59;72.31;100835.22;5013983;28;20075;-92
2021/06/03 08:36:06;;;;;;;16.75;8.98;;;;;;;19.67;72.00;100837.09;5014443;28;20022;-91
2021/06/03 08:38:32;;;;;;;18.75;9.25;;;;;;;19.73;72.35;100839.22;5004928;28;20027;-91
2021/06/03 08:40:59;;;;;;;19.17;8.50;;;;;;;19.76;72.94;100842.38;5014201;28;20030;-91
2021/06/03 08:43:27;;;;;;;14.00;8.57;;;;;;;19.64;73.26;100853.41;5004197;28;20041;-91
2021/06/03 08:45:54;;;;;;;15.85;8.65;;;;;;;19.85;71.27;100845.13;5014433;28;20049;-92
2021/06/03 08:48:19;;;;;;;18.45;8.10;;;;;;;20.02;71.36;100849.59;5011881;28;20030;-92
2021/06/03 08:50:51;;;;;;;12.23;8.07;;;;;;;20.05;70.90;100851.13;5012216;28;20041;-92
2021/06/03 08:53:17;;;;;;;33.05;10.23;;;;;;;19.99;70.40;100847.25;4994609;28;20483;-91
2021/06/03 08:58:27;;;;;;;19.23;8.48;;;;;;;20.11;71.92;100837.16;5011339;28;20045;-92
2021/06/03 09:00:54;;;;;;;15.15;7.85;;;;;;;20.37;70.57;100839.81;5013424;28;20026;-92
2021/06/03 09:03:23;;;;;;;17.15;7.22;;;;;;;20.44;69.03;100835.53;5012930;28;20156;-92
2021/06/03 09:05:48;;;;;;;9.60;6.60;;;;;;;20.70;67.99;100840.03;4997646;28;20401;-94
2021/06/03 09:08:24;;;;;;;14.73;7.85;;;;;;;20.73;67.84;100832.53;5013221;28;20026;-92
2021/06/03 09:11:02;;;;;;;11.32;7.15;;;;;;;21.38;63.37;100828.38;5013405;28;20029;-92
2021/06/03 09:13:34;;;;;;;12.38;6.47;;;;;;;21.65;62.88;100821.94;5010903;28;20107;-92
2021/06/03 09:16:13;;;;;;;30.73;9.00;;;;;;;21.82;62.27;100820.13;5001143;28;20022;-91
2021/06/03 09:18:48;;;;;;;47.13;8.15;;;;;;;21.84;63.79;100827.94;4994971;28;20034;-91
2021/06/03 09:21:24;;;;;;;56.33;26.27;;;;;;;21.47;61.64;100835.47;4996241;28;20380;-91
2021/06/03 09:23:58;;;;;;;46.53;21.92;;;;;;;20.89;63.03;100842.47;5003452;28;20476;-91
2021/06/03 09:26:26;;;;;;;42.58;22.05;;;;;;;20.79;63.17;100853.25;4994990;28;20416;-91
2021/06/03 09:28:54;;;;;;;17.60;8.65;;;;;;;20.58;63.47;100847.47;4995278;28;20357;-88
2021/06/03 09:31:21;;;;;;;16.95;9.23;;;;;;;20.79;63.72;100852.41;4995772;28;20023;-90
2021/06/03 09:33:46;;;;;;;19.17;9.88;;;;;;;20.64;63.91;100854.03;5008392;28;20117;-90
2021/06/03 09:36:24;;;;;;;24.27;14.68;;;;;;;20.74;63.53;100866.25;4995201;28;20170;-90
2021/06/03 09:39:28;;;;;;;18.95;8.35;;;;;;;21.38;61.40;100860.44;4994838;28;20030;-90
2021/06/03 09:42:01;;;;;;;11.27;4.50;;;;;;;21.49;60.90;100856.69;4982902;28;20042;-91
2021/06/03 09:44:51;;;;;;;9.32;4.50;;;;;;;22.05;57.76;100860.34;4994759;28;20048;-90
2021/06/03 09:47:18;;;;;;;7.53;4.10;;;;;;;21.90;58.71;100851.34;4994647;28;20500;-90
2021/06/03 09:49:53;;;;;;;14.35;4.95;;;;;;;21.72;58.99;100856.84;4994580;28;20049;-89
2021/06/03 09:52:22;;;;;;;8.02;5.57;;;;;;;21.86;58.94;100858.03;4994458;28;20049;-90
2021/06/03 09:54:53;;;;;;;6.30;4.40;;;;;;;21.96;57.19;100854.19;5003999;28;20037;-91
2021/06/03 09:57:20;;;;;;;11.00;4.20;;;;;;;22.14;55.90;100861.19;5010928;28;20489;-91
2021/06/03 09:59:58;;;;;;;8.50;4.18;;;;;;;22.33;56.59;100866.22;5005156;28;20030;-91
2021/06/03 10:02:23;;;;;;;6.15;3.33;;;;;;;22.33;55.77;100863.56;4994313;28;20042;-89
2021/06/03 10:04:50;;;;;;;7.50;3.30;;;;;;;22.38;55.34;100855.84;4995164;28;20097;-89
2021/06/03 10:07:19;;;;;;;8.25;3.38;;;;;;;22.32;55.17;100874.41;4994300;28;20505;-89
2021/06/03 10:09:45;;;;;;;6.30;3.20;;;;;;;22.46;53.65;100876.38;4998236;28;20060;-89
2021/06/03 10:12:32;;;;;;;6.55;3.33;;;;;;;22.65;53.75;100882.34;5013902;28;20448;-89
2021/06/03 10:15:03;;;;;;;9.45;3.42;;;;;;;23.05;52.64;100888.63;5007705;28;20034;-88
2021/06/03 10:17:37;;;;;;;12.43;4.15;;;;;;;22.45;52.54;100874.69;5013617;28;20045;-89
2021/06/03 10:20:15;;;;;;;4.97;3.33;;;;;;;22.31;53.60;100886.09;5013666;28;20034;-89
2021/06/03 10:22:43;;;;;;;9.88;3.28;;;;;;;22.18;53.89;100889.28;5013666;28;20284;-90
2021/06/03 10:25:14;;;;;;;6.10;4.13;;;;;;;21.70;55.09;100897.13;5000338;28;20030;-90
2021/06/03 10:27:58;;;;;;;23.25;4.93;;;;;;;21.96;55.00;100893.47;5008291;28;20441;-92
2021/06/03 10:30:27;;;;;;;7.18;4.57;;;;;;;22.01;54.55;100892.97;5013543;28;20073;-91
2021/06/03 10:32:59;;;;;;;5.85;3.03;;;;;;;22.36;55.27;100891.78;5013619;28;20022;-90
2021/06/03 10:35:31;;;;;;;8.20;3.20;;;;;;;22.62;53.57;100901.44;5011452;28;20017;-89
2021/06/03 10:37:57;;;;;;;7.32;3.08;;;;;;;22.76;52.50;100903.41;5013324;28;20088;-89
2021/06/03 10:40:26;;;;;;;9.30;3.47;;;;;;;22.80;51.80;100899.38;5013131;28;20022;-89
2021/06/03 10:42:52;;;;;;;9.13;3.90;;;;;;;22.29;53.28;100906.84;5013122;28;20114;-89
2021/06/03 10:45:21;;;;;;;4.60;2.97;;;;;;;21.82;55.58;100912.81;5011466;28;20444;-89
2021/06/03 10:47:47;;;;;;;7.03;2.95;;;;;;;22.28;52.95;100906.00;5012992;28;20022;-89
2021/06/03 10:50:18;;;;;;;5.10;2.30;;;;;;;22.22;53.70;100911.19;5013061;28;20113;-89
2021/06/03 10:52:44;;;;;;;4.15;2.40;;;;;;;22.20;53.76;100906.00;5011714;28;20028;-89
2021/06/03 10:55:22;;;;;;;4.82;2.45;;;;;;;22.28;53.18;100916.72;5001546;28;20053;-90
2021/06/03 10:57:51;;;;;;;7.53;1.92;;;;;;;22.60;52.26;100908.81;5011901;28;20030;-90
2021/06/03 11:00:30;;;;;;;6.40;2.53;;;;;;;22.71;50.29;100919.13;5012085;28;20415;-90
2021/06/03 11:03:04;;;;;;;4.35;2.55;;;;;;;22.94;50.09;100913.88;5009559;28;20109;-90
2021/06/03 11:05:34;;;;;;;14.38;3.22;;;;;;;22.93;50.10;100910.38;5010891;28;20030;-90
2021/06/03 11:08:35;;;;;;;5.13;2.13;;;;;;;23.56;48.67;100913.13;5009140;28;20028;-89
2021/06/03 11:11:10;;;;;;;3.45;2.10;;;;;;;23.44;50.58;100922.56;5011357;28;20029;-89
2021/06/03 11:14:02;;;;;;;5.32;2.28;;;;;;;23.37;50.22;100922.44;5010953;28;20168;-89
2021/06/03 11:16:45;;;;;;;5.53;1.80;;;;;;;23.54;49.41;100918.66;5010878;28;20554;-89
2021/06/03 11:19:13;;;;;;;16.88;3.28;;;;;;;23.70;50.06;100925.75;5010632;28;20022;-89
2021/06/03 11:21:38;;;;;;;7.60;1.65;;;;;;;23.89;47.26;100924.47;5010130;28;20030;-89